sensor_id;sensor_type;location;lat;lon;timestamp;P1;durP1;ratioP1;P2;durP2;ratioP2
4174;SDS011;2101;48.290;14.382;2023-05-02T00:01:21;23.60;;;6.37;;
4174;SDS011;2101;48.290;14.382;2023-05-02T00:03:47;23.70;;;6.60;;
4174;SDS011;2101;48.290;14.382;2023-05-02T00:06:13;23.97;;;6.37;;
4174;SDS011;2101;48.290;14.382;2023-05-02T00:08:39;22.87;;;6.03;;
4174;SDS011;2101;48.290;14.382;2023-05-02T00:11:05;23.00;;;6.67;;
4174;SDS011;2101;48.290;14.382;2023-05-02T00:13:31;23.27;;;7.17;;
4174;SDS011;2101;48.290;14.382;2023-05-02T00:15:57;24.60;;;7.10;;
4174;SDS011;2101;48.290;14.382;2023-05-02T00:18:24;27.33;;;7.20;;
4174;SDS011;2101;48.290;14.382;2023-05-02T00:20:50;23.17;;;6.27;;
4174;SDS011;2101;48.290;14.382;2023-05-02T00:23:16;25.83;;;7.60;;
4174;SDS011;2101;48.290;14.382;2023-05-02T00:25:45;29.23;;;8.13;;
4174;SDS011;2101;48.290;14.382;2023-05-02T00:28:11;29.53;;;8.37;;
4174;SDS011;2101;48.290;14.382;2023-05-02T00:30:44;29.73;;;8.97;;
4174;SDS011;2101;48.290;14.382;2023-05-02T00:33:10;32.63;;;9.20;;
4174;SDS011;2101;48.290;14.382;2023-05-02T00:35:38;27.60;;;9.30;;
4174;SDS011;2101;48.290;14.382;2023-05-02T00:38:04;30.83;;;9.10;;
4174;SDS011;2101;48.290;14.382;2023-05-02T00:40:40;25.73;;;9.03;;
4174;SDS011;2101;48.290;14.382;2023-05-02T00:43:07;26.33;;;8.93;;
4174;SDS011;2101;48.290;14.382;2023-05-02T00:45:33;27.50;;;8.57;;
4174;SDS011;2101;48.290;14.382;2023-05-02T00:47:59;25.23;;;7.97;;
4174;SDS011;2101;48.290;14.382;2023-05-02T00:50:26;29.37;;;8.40;;
4174;SDS011;2101;48.290;14.382;2023-05-02T00:52:53;30.20;;;9.33;;
4174;SDS011;2101;48.290;14.382;2023-05-02T00:55:20;34.63;;;10.37;;
4174;SDS011;2101;48.290;14.382;2023-05-02T00:57:46;30.30;;;8.83;;
4174;SDS011;2101;48.290;14.382;2023-05-02T01:00:13;31.37;;;9.73;;
4174;SDS011;2101;48.290;14.382;2023-05-02T01:02:42;26.63;;;9.10;;
4174;SDS011;2101;48.290;14.382;2023-05-02T01:05:14;28.20;;;8.77;;
4174;SDS011;2101;48.290;14.382;2023-05-02T01:07:58;29.60;;;8.70;;
4174;SDS011;2101;48.290;14.382;2023-05-02T01:13:03;28.90;;;8.77;;
4174;SDS011;2101;48.290;14.382;2023-05-02T01:15:32;37.37;;;10.57;;
4174;SDS011;2101;48.290;14.382;2023-05-02T01:17:58;32.13;;;9.53;;
4174;SDS011;2101;48.290;14.382;2023-05-02T01:20:26;26.60;;;9.50;;
4174;SDS011;2101;48.290;14.382;2023-05-02T01:22:53;30.10;;;9.73;;
4174;SDS011;2101;48.290;14.382;2023-05-02T01:28:26;36.30;;;9.93;;
4174;SDS011;2101;48.290;14.382;2023-05-02T01:30:54;30.53;;;9.43;;
4174;SDS011;2101;48.290;14.382;2023-05-02T01:33:21;33.53;;;11.03;;
4174;SDS011;2101;48.290;14.382;2023-05-02T01:35:49;38.33;;;10.10;;
4174;SDS011;2101;48.290;14.382;2023-05-02T01:38:16;35.43;;;10.40;;
4174;SDS011;2101;48.290;14.382;2023-05-02T01:40:46;30.73;;;10.20;;
4174;SDS011;2101;48.290;14.382;2023-05-02T01:43:12;30.40;;;10.20;;
4174;SDS011;2101;48.290;14.382;2023-05-02T01:45:39;25.13;;;8.27;;
4174;SDS011;2101;48.290;14.382;2023-05-02T01:48:06;32.27;;;9.97;;
4174;SDS011;2101;48.290;14.382;2023-05-02T01:50:33;30.67;;;8.37;;
4174;SDS011;2101;48.290;14.382;2023-05-02T01:53:01;28.03;;;8.60;;
4174;SDS011;2101;48.290;14.382;2023-05-02T01:55:28;24.67;;;8.17;;
4174;SDS011;2101;48.290;14.382;2023-05-02T01:57:54;24.03;;;8.10;;
4174;SDS011;2101;48.290;14.382;2023-05-02T02:00:21;26.60;;;9.20;;
4174;SDS011;2101;48.290;14.382;2023-05-02T02:02:48;24.00;;;8.57;;
4174;SDS011;2101;48.290;14.382;2023-05-02T02:05:16;24.03;;;8.20;;
4174;SDS011;2101;48.290;14.382;2023-05-02T02:07:43;27.07;;;9.30;;
4174;SDS011;2101;48.290;14.382;2023-05-02T02:10:09;34.37;;;9.53;;
4174;SDS011;2101;48.290;14.382;2023-05-02T02:12:41;24.13;;;7.63;;
4174;SDS011;2101;48.290;14.382;2023-05-02T02:17:58;27.77;;;7.50;;
4174;SDS011;2101;48.290;14.382;2023-05-02T02:20:25;25.10;;;8.03;;
4174;SDS011;2101;48.290;14.382;2023-05-02T02:22:52;24.00;;;7.83;;
4174;SDS011;2101;48.290;14.382;2023-05-02T02:25:18;23.87;;;7.83;;
4174;SDS011;2101;48.290;14.382;2023-05-02T02:27:44;25.00;;;8.23;;
4174;SDS011;2101;48.290;14.382;2023-05-02T02:30:10;28.97;;;7.47;;
4174;SDS011;2101;48.290;14.382;2023-05-02T02:32:36;25.10;;;8.40;;
4174;SDS011;2101;48.290;14.382;2023-05-02T02:35:02;27.70;;;8.40;;
4174;SDS011;2101;48.290;14.382;2023-05-02T02:37:34;24.17;;;7.50;;
4174;SDS011;2101;48.290;14.382;2023-05-02T02:42:40;22.83;;;6.90;;
4174;SDS011;2101;48.290;14.382;2023-05-02T02:45:15;24.77;;;8.10;;
4174;SDS011;2101;48.290;14.382;2023-05-02T02:53:02;26.80;;;6.83;;
4174;SDS011;2101;48.290;14.382;2023-05-02T02:55:44;24.93;;;7.07;;
4174;SDS011;2101;48.290;14.382;2023-05-02T02:58:18;26.07;;;6.93;;
4174;SDS011;2101;48.290;14.382;2023-05-02T03:00:45;22.73;;;6.27;;
4174;SDS011;2101;48.290;14.382;2023-05-02T03:03:13;25.10;;;6.63;;
4174;SDS011;2101;48.290;14.382;2023-05-02T03:05:40;22.07;;;5.60;;
4174;SDS011;2101;48.290;14.382;2023-05-02T03:08:06;22.80;;;5.50;;
4174;SDS011;2101;48.290;14.382;2023-05-02T03:10:33;20.33;;;5.50;;
4174;SDS011;2101;48.290;14.382;2023-05-02T03:12:59;21.33;;;5.30;;
4174;SDS011;2101;48.290;14.382;2023-05-02T03:18:10;20.30;;;5.10;;
4174;SDS011;2101;48.290;14.382;2023-05-02T03:20:36;21.90;;;6.27;;
4174;SDS011;2101;48.290;14.382;2023-05-02T03:23:02;24.13;;;6.23;;
4174;SDS011;2101;48.290;14.382;2023-05-02T03:25:28;22.63;;;6.20;;
4174;SDS011;2101;48.290;14.382;2023-05-02T03:27:55;20.60;;;5.33;;
4174;SDS011;2101;48.290;14.382;2023-05-02T03:30:22;18.70;;;3.80;;
4174;SDS011;2101;48.290;14.382;2023-05-02T03:32:48;20.33;;;5.53;;
4174;SDS011;2101;48.290;14.382;2023-05-02T03:35:14;16.50;;;3.43;;
4174;SDS011;2101;48.290;14.382;2023-05-02T03:37:40;18.00;;;3.57;;
4174;SDS011;2101;48.290;14.382;2023-05-02T03:40:07;14.20;;;2.50;;
4174;SDS011;2101;48.290;14.382;2023-05-02T03:42:33;16.37;;;3.30;;
4174;SDS011;2101;48.290;14.382;2023-05-02T03:45:05;17.87;;;2.70;;
4174;SDS011;2101;48.290;14.382;2023-05-02T03:47:31;15.30;;;2.70;;
4174;SDS011;2101;48.290;14.382;2023-05-02T03:49:57;15.03;;;2.57;;
4174;SDS011;2101;48.290;14.382;2023-05-02T03:52:24;14.17;;;2.93;;
4174;SDS011;2101;48.290;14.382;2023-05-02T03:54:50;19.00;;;3.77;;
4174;SDS011;2101;48.290;14.382;2023-05-02T03:57:16;17.50;;;3.23;;
4174;SDS011;2101;48.290;14.382;2023-05-02T03:59:42;15.50;;;3.40;;
4174;SDS011;2101;48.290;14.382;2023-05-02T04:02:12;16.90;;;3.90;;
4174;SDS011;2101;48.290;14.382;2023-05-02T04:04:38;17.10;;;4.20;;
4174;SDS011;2101;48.290;14.382;2023-05-02T04:07:05;16.83;;;3.63;;
4174;SDS011;2101;48.290;14.382;2023-05-02T04:09:32;18.27;;;4.37;;
4174;SDS011;2101;48.290;14.382;2023-05-02T04:11:58;19.10;;;3.23;;
4174;SDS011;2101;48.290;14.382;2023-05-02T04:14:25;17.77;;;3.50;;
4174;SDS011;2101;48.290;14.382;2023-05-02T04:16:51;16.47;;;2.77;;
4174;SDS011;2101;48.290;14.382;2023-05-02T04:19:18;15.53;;;2.90;;
4174;SDS011;2101;48.290;14.382;2023-05-02T04:21:44;16.10;;;3.63;;
4174;SDS011;2101;48.290;14.382;2023-05-02T04:24:10;18.10;;;3.60;;
4174;SDS011;2101;48.290;14.382;2023-05-02T04:26:36;16.57;;;3.20;;
4174;SDS011;2101;48.290;14.382;2023-05-02T04:29:02;15.63;;;3.03;;
4174;SDS011;2101;48.290;14.382;2023-05-02T04:31:30;16.37;;;3.03;;
4174;SDS011;2101;48.290;14.382;2023-05-02T04:33:56;17.60;;;3.23;;
4174;SDS011;2101;48.290;14.382;2023-05-02T04:36:23;15.97;;;3.47;;
4174;SDS011;2101;48.290;14.382;2023-05-02T04:38:50;19.90;;;3.40;;
4174;SDS011;2101;48.290;14.382;2023-05-02T04:41:16;16.77;;;2.70;;
4174;SDS011;2101;48.290;14.382;2023-05-02T04:43:43;16.57;;;3.30;;
4174;SDS011;2101;48.290;14.382;2023-05-02T04:46:09;16.50;;;3.23;;
4174;SDS011;2101;48.290;14.382;2023-05-02T04:48:35;20.23;;;3.80;;
4174;SDS011;2101;48.290;14.382;2023-05-02T04:51:05;19.23;;;3.40;;
4174;SDS011;2101;48.290;14.382;2023-05-02T04:53:32;16.80;;;3.43;;
4174;SDS011;2101;48.290;14.382;2023-05-02T04:55:58;16.23;;;3.53;;
4174;SDS011;2101;48.290;14.382;2023-05-02T04:58:24;15.60;;;3.50;;
4174;SDS011;2101;48.290;14.382;2023-05-02T05:00:50;16.50;;;2.90;;
4174;SDS011;2101;48.290;14.382;2023-05-02T05:03:16;16.20;;;3.03;;
4174;SDS011;2101;48.290;14.382;2023-05-02T05:05:42;15.50;;;3.10;;
4174;SDS011;2101;48.290;14.382;2023-05-02T05:08:08;26.33;;;3.97;;
4174;SDS011;2101;48.290;14.382;2023-05-02T05:10:35;14.93;;;2.70;;
4174;SDS011;2101;48.290;14.382;2023-05-02T05:13:01;17.03;;;3.20;;
4174;SDS011;2101;48.290;14.382;2023-05-02T05:15:28;20.97;;;4.10;;
4174;SDS011;2101;48.290;14.382;2023-05-02T05:17:54;17.37;;;3.83;;
4174;SDS011;2101;48.290;14.382;2023-05-02T05:20:20;21.80;;;4.50;;
4174;SDS011;2101;48.290;14.382;2023-05-02T05:22:46;19.07;;;4.80;;
4174;SDS011;2101;48.290;14.382;2023-05-02T05:25:12;20.07;;;5.10;;
4174;SDS011;2101;48.290;14.382;2023-05-02T05:27:39;23.30;;;4.20;;
4174;SDS011;2101;48.290;14.382;2023-05-02T05:30:06;20.80;;;4.43;;
4174;SDS011;2101;48.290;14.382;2023-05-02T05:32:33;19.60;;;4.40;;
4174;SDS011;2101;48.290;14.382;2023-05-02T05:34:59;21.13;;;4.40;;
4174;SDS011;2101;48.290;14.382;2023-05-02T05:37:26;19.60;;;4.30;;
4174;SDS011;2101;48.290;14.382;2023-05-02T05:39:52;16.23;;;3.50;;
4174;SDS011;2101;48.290;14.382;2023-05-02T05:42:18;21.07;;;4.00;;
4174;SDS011;2101;48.290;14.382;2023-05-02T05:44:44;16.80;;;4.33;;
4174;SDS011;2101;48.290;14.382;2023-05-02T05:47:10;16.73;;;3.50;;
4174;SDS011;2101;48.290;14.382;2023-05-02T05:49:36;15.70;;;3.60;;
4174;SDS011;2101;48.290;14.382;2023-05-02T05:52:02;16.57;;;3.57;;
4174;SDS011;2101;48.290;14.382;2023-05-02T05:54:28;20.30;;;3.90;;
4174;SDS011;2101;48.290;14.382;2023-05-02T05:56:54;18.30;;;3.47;;
4174;SDS011;2101;48.290;14.382;2023-05-02T05:59:21;17.77;;;4.27;;
4174;SDS011;2101;48.290;14.382;2023-05-02T06:01:47;16.23;;;3.33;;
4174;SDS011;2101;48.290;14.382;2023-05-02T06:04:13;19.57;;;4.30;;
4174;SDS011;2101;48.290;14.382;2023-05-02T06:06:39;17.20;;;4.20;;
4174;SDS011;2101;48.290;14.382;2023-05-02T06:09:05;16.90;;;4.40;;
4174;SDS011;2101;48.290;14.382;2023-05-02T06:11:31;17.80;;;4.20;;
4174;SDS011;2101;48.290;14.382;2023-05-02T06:13:57;17.57;;;4.53;;
4174;SDS011;2101;48.290;14.382;2023-05-02T06:16:23;21.20;;;4.70;;
4174;SDS011;2101;48.290;14.382;2023-05-02T06:18:49;26.80;;;5.73;;
4174;SDS011;2101;48.290;14.382;2023-05-02T06:21:17;20.10;;;4.70;;
4174;SDS011;2101;48.290;14.382;2023-05-02T06:23:43;19.97;;;4.67;;
4174;SDS011;2101;48.290;14.382;2023-05-02T06:26:09;20.57;;;5.20;;
4174;SDS011;2101;48.290;14.382;2023-05-02T06:28:36;17.90;;;4.77;;
4174;SDS011;2101;48.290;14.382;2023-05-02T06:31:02;26.03;;;4.93;;
4174;SDS011;2101;48.290;14.382;2023-05-02T06:33:30;18.97;;;4.63;;
4174;SDS011;2101;48.290;14.382;2023-05-02T06:35:56;23.83;;;5.57;;
4174;SDS011;2101;48.290;14.382;2023-05-02T06:38:23;19.60;;;4.50;;
4174;SDS011;2101;48.290;14.382;2023-05-02T06:40:50;18.20;;;4.83;;
4174;SDS011;2101;48.290;14.382;2023-05-02T06:43:17;18.87;;;4.80;;
4174;SDS011;2101;48.290;14.382;2023-05-02T06:45:43;23.07;;;5.43;;
4174;SDS011;2101;48.290;14.382;2023-05-02T06:48:09;20.50;;;4.80;;
4174;SDS011;2101;48.290;14.382;2023-05-02T06:50:36;22.43;;;6.17;;
4174;SDS011;2101;48.290;14.382;2023-05-02T06:53:03;21.20;;;5.70;;
4174;SDS011;2101;48.290;14.382;2023-05-02T06:55:30;25.27;;;7.07;;
4174;SDS011;2101;48.290;14.382;2023-05-02T06:57:56;23.60;;;5.50;;
4174;SDS011;2101;48.290;14.382;2023-05-02T07:00:22;23.50;;;5.50;;
4174;SDS011;2101;48.290;14.382;2023-05-02T07:02:48;20.40;;;5.37;;
4174;SDS011;2101;48.290;14.382;2023-05-02T07:05:14;20.03;;;5.07;;
4174;SDS011;2101;48.290;14.382;2023-05-02T07:07:41;26.43;;;5.90;;
4174;SDS011;2101;48.290;14.382;2023-05-02T07:10:12;22.70;;;5.30;;
4174;SDS011;2101;48.290;14.382;2023-05-02T07:12:38;20.43;;;5.53;;
4174;SDS011;2101;48.290;14.382;2023-05-02T07:15:05;20.70;;;5.47;;
4174;SDS011;2101;48.290;14.382;2023-05-02T07:17:31;20.80;;;5.60;;
4174;SDS011;2101;48.290;14.382;2023-05-02T07:19:57;20.70;;;5.23;;
4174;SDS011;2101;48.290;14.382;2023-05-02T07:22:23;18.20;;;4.37;;
4174;SDS011;2101;48.290;14.382;2023-05-02T07:24:59;19.93;;;5.27;;
4174;SDS011;2101;48.290;14.382;2023-05-02T07:27:26;22.47;;;5.77;;
4174;SDS011;2101;48.290;14.382;2023-05-02T07:29:52;25.03;;;5.00;;
4174;SDS011;2101;48.290;14.382;2023-05-02T07:32:19;19.00;;;5.73;;
4174;SDS011;2101;48.290;14.382;2023-05-02T07:34:51;19.63;;;5.07;;
4174;SDS011;2101;48.290;14.382;2023-05-02T07:37:23;23.77;;;5.80;;
4174;SDS011;2101;48.290;14.382;2023-05-02T07:39:49;25.00;;;6.63;;
4174;SDS011;2101;48.290;14.382;2023-05-02T07:42:15;23.20;;;7.30;;
4174;SDS011;2101;48.290;14.382;2023-05-02T07:44:41;22.37;;;6.90;;
4174;SDS011;2101;48.290;14.382;2023-05-02T07:47:08;24.23;;;6.50;;
4174;SDS011;2101;48.290;14.382;2023-05-02T07:49:34;24.67;;;6.53;;
4174;SDS011;2101;48.290;14.382;2023-05-02T07:52:00;22.83;;;6.07;;
4174;SDS011;2101;48.290;14.382;2023-05-02T07:54:27;18.97;;;5.37;;
4174;SDS011;2101;48.290;14.382;2023-05-02T07:56:53;24.10;;;5.77;;
4174;SDS011;2101;48.290;14.382;2023-05-02T07:59:22;21.60;;;5.63;;
4174;SDS011;2101;48.290;14.382;2023-05-02T08:01:51;22.00;;;5.37;;
4174;SDS011;2101;48.290;14.382;2023-05-02T08:04:17;24.17;;;6.50;;
4174;SDS011;2101;48.290;14.382;2023-05-02T08:06:43;28.10;;;8.20;;
4174;SDS011;2101;48.290;14.382;2023-05-02T08:09:09;22.03;;;6.73;;
4174;SDS011;2101;48.290;14.382;2023-05-02T08:11:36;23.60;;;7.03;;
4174;SDS011;2101;48.290;14.382;2023-05-02T08:14:07;22.87;;;6.30;;
4174;SDS011;2101;48.290;14.382;2023-05-02T08:16:33;27.60;;;6.83;;
4174;SDS011;2101;48.290;14.382;2023-05-02T08:18:59;21.73;;;6.30;;
4174;SDS011;2101;48.290;14.382;2023-05-02T08:21:28;23.17;;;5.87;;
4174;SDS011;2101;48.290;14.382;2023-05-02T08:23:59;18.00;;;5.10;;
4174;SDS011;2101;48.290;14.382;2023-05-02T08:26:28;25.63;;;7.37;;
4174;SDS011;2101;48.290;14.382;2023-05-02T08:28:54;21.37;;;5.83;;
4174;SDS011;2101;48.290;14.382;2023-05-02T08:31:20;19.70;;;5.73;;
4174;SDS011;2101;48.290;14.382;2023-05-02T08:33:46;21.73;;;6.63;;
4174;SDS011;2101;48.290;14.382;2023-05-02T08:36:13;19.30;;;5.03;;
4174;SDS011;2101;48.290;14.382;2023-05-02T08:38:39;19.53;;;5.90;;
4174;SDS011;2101;48.290;14.382;2023-05-02T08:41:16;21.77;;;6.20;;
4174;SDS011;2101;48.290;14.382;2023-05-02T08:43:42;26.70;;;5.53;;
4174;SDS011;2101;48.290;14.382;2023-05-02T08:46:09;21.40;;;5.87;;
4174;SDS011;2101;48.290;14.382;2023-05-02T08:48:36;32.13;;;7.40;;
4174;SDS011;2101;48.290;14.382;2023-05-02T08:51:02;22.80;;;6.03;;
4174;SDS011;2101;48.290;14.382;2023-05-02T08:53:33;24.27;;;6.10;;
4174;SDS011;2101;48.290;14.382;2023-05-02T08:56:00;22.93;;;5.90;;
4174;SDS011;2101;48.290;14.382;2023-05-02T08:58:26;24.30;;;6.37;;
4174;SDS011;2101;48.290;14.382;2023-05-02T09:00:53;21.23;;;6.53;;
4174;SDS011;2101;48.290;14.382;2023-05-02T09:03:33;21.87;;;6.57;;
4174;SDS011;2101;48.290;14.382;2023-05-02T09:06:09;24.87;;;6.37;;
4174;SDS011;2101;48.290;14.382;2023-05-02T09:08:37;23.10;;;6.70;;
4174;SDS011;2101;48.290;14.382;2023-05-02T09:11:03;20.40;;;6.00;;
4174;SDS011;2101;48.290;14.382;2023-05-02T09:15:56;20.83;;;6.40;;
4174;SDS011;2101;48.290;14.382;2023-05-02T09:18:23;22.00;;;6.70;;
4174;SDS011;2101;48.290;14.382;2023-05-02T09:20:50;23.30;;;6.30;;
4174;SDS011;2101;48.290;14.382;2023-05-02T09:23:16;26.70;;;6.77;;
4174;SDS011;2101;48.290;14.382;2023-05-02T09:25:42;23.47;;;6.33;;
4174;SDS011;2101;48.290;14.382;2023-05-02T09:28:08;20.63;;;6.00;;
4174;SDS011;2101;48.290;14.382;2023-05-02T09:30:34;20.70;;;5.93;;
4174;SDS011;2101;48.290;14.382;2023-05-02T09:33:00;23.33;;;6.13;;
4174;SDS011;2101;48.290;14.382;2023-05-02T09:35:26;22.27;;;6.33;;
4174;SDS011;2101;48.290;14.382;2023-05-02T09:37:56;20.00;;;5.10;;
4174;SDS011;2101;48.290;14.382;2023-05-02T09:40:26;19.13;;;5.27;;
4174;SDS011;2101;48.290;14.382;2023-05-02T09:42:57;22.73;;;5.90;;
4174;SDS011;2101;48.290;14.382;2023-05-02T09:45:24;20.67;;;6.20;;
4174;SDS011;2101;48.290;14.382;2023-05-02T09:47:50;19.73;;;6.00;;
4174;SDS011;2101;48.290;14.382;2023-05-02T09:53:05;23.10;;;6.27;;
4174;SDS011;2101;48.290;14.382;2023-05-02T09:55:31;19.90;;;6.17;;
4174;SDS011;2101;48.290;14.382;2023-05-02T09:57:58;20.47;;;5.97;;
4174;SDS011;2101;48.290;14.382;2023-05-02T10:00:43;20.63;;;5.60;;
4174;SDS011;2101;48.290;14.382;2023-05-02T10:03:14;18.50;;;4.60;;
4174;SDS011;2101;48.290;14.382;2023-05-02T10:05:41;19.23;;;5.70;;
4174;SDS011;2101;48.290;14.382;2023-05-02T10:08:11;22.03;;;5.20;;
4174;SDS011;2101;48.290;14.382;2023-05-02T10:10:42;23.17;;;6.00;;
4174;SDS011;2101;48.290;14.382;2023-05-02T10:13:10;20.90;;;5.43;;
4174;SDS011;2101;48.290;14.382;2023-05-02T10:15:41;18.87;;;5.10;;
4174;SDS011;2101;48.290;14.382;2023-05-02T10:18:11;21.13;;;5.70;;
4174;SDS011;2101;48.290;14.382;2023-05-02T10:20:42;20.47;;;5.20;;
4174;SDS011;2101;48.290;14.382;2023-05-02T10:23:09;19.77;;;5.33;;
4174;SDS011;2101;48.290;14.382;2023-05-02T10:25:35;22.03;;;5.87;;
4174;SDS011;2101;48.290;14.382;2023-05-02T10:28:01;19.60;;;4.90;;
4174;SDS011;2101;48.290;14.382;2023-05-02T10:30:28;18.37;;;4.90;;
4174;SDS011;2101;48.290;14.382;2023-05-02T10:32:54;20.60;;;5.87;;
4174;SDS011;2101;48.290;14.382;2023-05-02T10:35:24;22.53;;;5.70;;
4174;SDS011;2101;48.290;14.382;2023-05-02T10:37:51;20.20;;;5.90;;
4174;SDS011;2101;48.290;14.382;2023-05-02T10:40:17;22.30;;;5.53;;
4174;SDS011;2101;48.290;14.382;2023-05-02T10:42:44;19.97;;;5.40;;
4174;SDS011;2101;48.290;14.382;2023-05-02T10:50:49;18.93;;;5.00;;
4174;SDS011;2101;48.290;14.382;2023-05-02T10:53:26;21.20;;;5.87;;
4174;SDS011;2101;48.290;14.382;2023-05-02T10:58:38;21.10;;;6.10;;
4174;SDS011;2101;48.290;14.382;2023-05-02T11:03:59;21.03;;;5.77;;
4174;SDS011;2101;48.290;14.382;2023-05-02T11:06:29;22.07;;;5.80;;
4174;SDS011;2101;48.290;14.382;2023-05-02T11:11:37;26.10;;;7.13;;
4174;SDS011;2101;48.290;14.382;2023-05-02T11:14:46;21.00;;;6.57;;
4174;SDS011;2101;48.290;14.382;2023-05-02T11:17:06;24.93;;;6.53;;
4174;SDS011;2101;48.290;14.382;2023-05-02T11:24:44;22.50;;;6.10;;
4174;SDS011;2101;48.290;14.382;2023-05-02T11:32:21;20.57;;;5.50;;
4174;SDS011;2101;48.290;14.382;2023-05-02T11:34:48;20.43;;;5.40;;
4174;SDS011;2101;48.290;14.382;2023-05-02T11:37:18;19.60;;;5.27;;
4174;SDS011;2101;48.290;14.382;2023-05-02T11:39:45;19.87;;;5.80;;
4174;SDS011;2101;48.290;14.382;2023-05-02T11:45:06;20.70;;;5.50;;
4174;SDS011;2101;48.290;14.382;2023-05-02T11:47:32;18.97;;;5.80;;
4174;SDS011;2101;48.290;14.382;2023-05-02T11:49:58;20.80;;;6.17;;
4174;SDS011;2101;48.290;14.382;2023-05-02T11:52:29;21.07;;;6.10;;
4174;SDS011;2101;48.290;14.382;2023-05-02T11:54:55;21.83;;;6.00;;
4174;SDS011;2101;48.290;14.382;2023-05-02T11:57:22;20.27;;;5.90;;
4174;SDS011;2101;48.290;14.382;2023-05-02T11:59:52;20.80;;;5.87;;
4174;SDS011;2101;48.290;14.382;2023-05-02T12:02:18;21.10;;;6.10;;
4174;SDS011;2101;48.290;14.382;2023-05-02T12:04:49;19.33;;;5.40;;
4174;SDS011;2101;48.290;14.382;2023-05-02T12:07:15;19.73;;;5.13;;
4174;SDS011;2101;48.290;14.382;2023-05-02T12:09:50;24.10;;;6.20;;
4174;SDS011;2101;48.290;14.382;2023-05-02T12:12:20;20.23;;;6.30;;
4174;SDS011;2101;48.290;14.382;2023-05-02T12:14:48;19.00;;;5.60;;
4174;SDS011;2101;48.290;14.382;2023-05-02T12:17:14;18.93;;;5.50;;
4174;SDS011;2101;48.290;14.382;2023-05-02T12:19:40;20.60;;;5.47;;
4174;SDS011;2101;48.290;14.382;2023-05-02T12:22:09;22.33;;;5.63;;
4174;SDS011;2101;48.290;14.382;2023-05-02T12:24:37;18.77;;;5.40;;
4174;SDS011;2101;48.290;14.382;2023-05-02T12:27:07;23.73;;;7.20;;
4174;SDS011;2101;48.290;14.382;2023-05-02T12:29:37;20.37;;;6.10;;
4174;SDS011;2101;48.290;14.382;2023-05-02T12:32:06;20.23;;;6.30;;
4174;SDS011;2101;48.290;14.382;2023-05-02T12:34:33;22.10;;;7.00;;
4174;SDS011;2101;48.290;14.382;2023-05-02T12:37:00;21.73;;;6.20;;
4174;SDS011;2101;48.290;14.382;2023-05-02T12:39:39;23.77;;;6.90;;
4174;SDS011;2101;48.290;14.382;2023-05-02T12:44:38;23.40;;;6.93;;
4174;SDS011;2101;48.290;14.382;2023-05-02T12:47:05;21.20;;;7.03;;
4174;SDS011;2101;48.290;14.382;2023-05-02T12:49:32;24.33;;;7.40;;
4174;SDS011;2101;48.290;14.382;2023-05-02T12:51:58;21.27;;;6.10;;
4174;SDS011;2101;48.290;14.382;2023-05-02T12:54:24;24.73;;;6.07;;
4174;SDS011;2101;48.290;14.382;2023-05-02T12:56:50;20.97;;;6.10;;
4174;SDS011;2101;48.290;14.382;2023-05-02T12:59:26;21.73;;;5.70;;
4174;SDS011;2101;48.290;14.382;2023-05-02T13:01:53;22.93;;;7.30;;
4174;SDS011;2101;48.290;14.382;2023-05-02T13:04:19;23.57;;;6.63;;
4174;SDS011;2101;48.290;14.382;2023-05-02T13:06:45;22.60;;;7.03;;
4174;SDS011;2101;48.290;14.382;2023-05-02T13:09:14;20.43;;;6.03;;
4174;SDS011;2101;48.290;14.382;2023-05-02T13:11:40;24.97;;;6.43;;
4174;SDS011;2101;48.290;14.382;2023-05-02T13:14:07;20.87;;;5.80;;
4174;SDS011;2101;48.290;14.382;2023-05-02T13:16:35;21.67;;;6.47;;
4174;SDS011;2101;48.290;14.382;2023-05-02T13:19:01;23.57;;;7.40;;
4174;SDS011;2101;48.290;14.382;2023-05-02T13:21:27;22.53;;;6.67;;
4174;SDS011;2101;48.290;14.382;2023-05-02T13:23:55;21.33;;;6.60;;
4174;SDS011;2101;48.290;14.382;2023-05-02T13:26:22;25.63;;;7.80;;
4174;SDS011;2101;48.290;14.382;2023-05-02T13:28:48;20.67;;;6.03;;
4174;SDS011;2101;48.290;14.382;2023-05-02T13:31:14;21.53;;;6.53;;
4174;SDS011;2101;48.290;14.382;2023-05-02T13:33:45;23.33;;;7.30;;
4174;SDS011;2101;48.290;14.382;2023-05-02T13:36:11;24.67;;;8.37;;
4174;SDS011;2101;48.290;14.382;2023-05-02T13:38:37;28.93;;;9.40;;
4174;SDS011;2101;48.290;14.382;2023-05-02T13:41:03;28.57;;;8.60;;
4174;SDS011;2101;48.290;14.382;2023-05-02T13:43:29;24.77;;;8.53;;
4174;SDS011;2101;48.290;14.382;2023-05-02T13:45:55;24.20;;;7.80;;
4174;SDS011;2101;48.290;14.382;2023-05-02T13:48:24;31.40;;;9.30;;
4174;SDS011;2101;48.290;14.382;2023-05-02T13:50:50;29.80;;;7.77;;
4174;SDS011;2101;48.290;14.382;2023-05-02T13:53:17;24.17;;;8.17;;
4174;SDS011;2101;48.290;14.382;2023-05-02T13:55:43;23.27;;;7.33;;
4174;SDS011;2101;48.290;14.382;2023-05-02T13:58:09;23.17;;;7.50;;
4174;SDS011;2101;48.290;14.382;2023-05-02T14:00:35;31.67;;;8.87;;
4174;SDS011;2101;48.290;14.382;2023-05-02T14:03:01;26.40;;;9.00;;
4174;SDS011;2101;48.290;14.382;2023-05-02T14:05:27;26.73;;;7.57;;
4174;SDS011;2101;48.290;14.382;2023-05-02T14:07:53;26.23;;;8.33;;
4174;SDS011;2101;48.290;14.382;2023-05-02T14:10:19;25.77;;;8.00;;
4174;SDS011;2101;48.290;14.382;2023-05-02T14:12:52;20.33;;;6.30;;
4174;SDS011;2101;48.290;14.382;2023-05-02T14:15:18;21.20;;;7.13;;
4174;SDS011;2101;48.290;14.382;2023-05-02T14:17:45;21.73;;;6.23;;
4174;SDS011;2101;48.290;14.382;2023-05-02T14:20:11;18.87;;;6.20;;
4174;SDS011;2101;48.290;14.382;2023-05-02T14:22:37;20.83;;;6.87;;
4174;SDS011;2101;48.290;14.382;2023-05-02T14:25:03;23.30;;;6.47;;
4174;SDS011;2101;48.290;14.382;2023-05-02T14:27:29;19.70;;;6.10;;
4174;SDS011;2101;48.290;14.382;2023-05-02T14:29:55;20.33;;;5.90;;
4174;SDS011;2101;48.290;14.382;2023-05-02T14:32:22;31.90;;;5.87;;
4174;SDS011;2101;48.290;14.382;2023-05-02T14:34:48;26.97;;;6.73;;
4174;SDS011;2101;48.290;14.382;2023-05-02T14:37:14;23.67;;;6.73;;
4174;SDS011;2101;48.290;14.382;2023-05-02T14:39:40;21.40;;;6.23;;
4174;SDS011;2101;48.290;14.382;2023-05-02T14:42:08;20.87;;;6.77;;
4174;SDS011;2101;48.290;14.382;2023-05-02T14:44:34;19.80;;;5.70;;
4174;SDS011;2101;48.290;14.382;2023-05-02T14:47:00;20.23;;;6.30;;
4174;SDS011;2101;48.290;14.382;2023-05-02T14:49:27;22.87;;;6.63;;
4174;SDS011;2101;48.290;14.382;2023-05-02T14:51:53;21.40;;;6.30;;
4174;SDS011;2101;48.290;14.382;2023-05-02T14:54:19;22.10;;;6.67;;
4174;SDS011;2101;48.290;14.382;2023-05-02T14:56:46;24.30;;;5.97;;
4174;SDS011;2101;48.290;14.382;2023-05-02T14:59:13;23.87;;;6.60;;
4174;SDS011;2101;48.290;14.382;2023-05-02T15:01:39;27.03;;;6.87;;
4174;SDS011;2101;48.290;14.382;2023-05-02T15:04:06;21.00;;;6.63;;
4174;SDS011;2101;48.290;14.382;2023-05-02T15:06:32;22.50;;;6.23;;
4174;SDS011;2101;48.290;14.382;2023-05-02T15:08:59;21.47;;;6.90;;
4174;SDS011;2101;48.290;14.382;2023-05-02T15:11:25;23.63;;;7.40;;
4174;SDS011;2101;48.290;14.382;2023-05-02T15:13:51;21.70;;;7.13;;
4174;SDS011;2101;48.290;14.382;2023-05-02T15:16:17;24.90;;;7.30;;
4174;SDS011;2101;48.290;14.382;2023-05-02T15:18:44;26.43;;;7.30;;
4174;SDS011;2101;48.290;14.382;2023-05-02T15:21:10;24.77;;;7.23;;
4174;SDS011;2101;48.290;14.382;2023-05-02T15:23:36;21.43;;;6.30;;
4174;SDS011;2101;48.290;14.382;2023-05-02T15:26:02;21.40;;;6.83;;
4174;SDS011;2101;48.290;14.382;2023-05-02T15:28:28;26.77;;;6.83;;
4174;SDS011;2101;48.290;14.382;2023-05-02T15:30:55;26.00;;;8.03;;
4174;SDS011;2101;48.290;14.382;2023-05-02T15:33:21;22.60;;;5.87;;
4174;SDS011;2101;48.290;14.382;2023-05-02T15:35:56;21.10;;;6.23;;
4174;SDS011;2101;48.290;14.382;2023-05-02T15:38:22;20.00;;;5.83;;
4174;SDS011;2101;48.290;14.382;2023-05-02T15:40:58;28.60;;;6.80;;
4174;SDS011;2101;48.290;14.382;2023-05-02T15:43:25;19.80;;;5.17;;